createdAt,value
2023-03-10T00:00:13.564Z,78.58
2023-03-10T00:02:45.270Z,78.87
2023-03-10T00:05:19.035Z,77.78
2023-03-10T00:07:50.925Z,77.67
2023-03-10T00:10:22.907Z,76.08
2023-03-10T00:12:55.216Z,76.69
2023-03-10T00:15:27.078Z,76.11
2023-03-10T00:17:58.837Z,75.82
2023-03-10T00:20:30.496Z,75.17
2023-03-10T00:23:02.293Z,75.43
2023-03-10T00:25:33.988Z,75.64
2023-03-10T00:28:05.801Z,75.96
2023-03-10T00:30:37.483Z,75.53
2023-03-10T00:33:09.137Z,74.78
2023-03-10T00:35:40.735Z,74.80
2023-03-10T00:38:12.457Z,74.61
2023-03-10T00:40:44.214Z,74.40
2023-03-10T00:43:15.892Z,74.09
2023-03-10T00:45:47.620Z,74.05
2023-03-10T00:48:19.703Z,74.99
2023-03-10T00:50:51.510Z,73.54
2023-03-10T00:53:24.094Z,76.58
2023-03-10T00:56:01.569Z,77.00
2023-03-10T00:58:34.999Z,76.84
2023-03-10T01:01:17.886Z,76.25
2023-03-10T01:03:55.270Z,75.20
2023-03-10T01:06:27.765Z,74.63
2023-03-10T01:09:00.885Z,76.63
2023-03-10T01:11:33.182Z,77.05
2023-03-10T01:14:08.684Z,77.33
2023-03-10T01:16:40.441Z,76.97
2023-03-10T01:19:12.201Z,77.76
2023-03-10T01:21:44.108Z,77.08
2023-03-10T01:24:16.203Z,77.11
2023-03-10T01:26:48.023Z,78.37
2023-03-10T01:29:19.748Z,78.18
2023-03-10T01:31:51.653Z,78.38
2023-03-10T01:34:23.406Z,78.15
2023-03-10T01:36:56.343Z,78.02
2023-03-10T01:39:28.274Z,79.20
2023-03-10T01:42:00.433Z,80.29
2023-03-10T01:44:32.345Z,81.26
2023-03-10T01:47:04.378Z,80.76
2023-03-10T01:49:45.128Z,80.72
2023-03-10T01:52:26.455Z,81.00
2023-03-10T01:54:58.175Z,80.53
2023-03-10T01:57:37.625Z,80.33
2023-03-10T02:00:10.862Z,79.03
2023-03-10T02:03:07.776Z,79.35
2023-03-10T02:05:51.658Z,79.81
2023-03-10T02:08:25.888Z,79.08
2023-03-10T02:10:59.219Z,76.87
2023-03-10T02:13:30.886Z,77.52
2023-03-10T02:16:03.586Z,78.28
2023-03-10T02:18:35.639Z,78.35
2023-03-10T02:21:27.675Z,78.44
2023-03-10T02:24:06.219Z,78.41
2023-03-10T02:26:56.396Z,77.95
2023-03-10T02:30:02.643Z,76.90
2023-03-10T02:32:45.277Z,77.39
2023-03-10T02:35:17.433Z,76.37
2023-03-10T02:37:58.036Z,76.66
2023-03-10T02:40:50.758Z,76.96
2023-03-10T02:43:30.046Z,75.61
2023-03-10T02:46:09.169Z,76.58
2023-03-10T02:48:45.454Z,76.37
2023-03-10T02:51:28.497Z,77.14
2023-03-10T02:54:03.455Z,76.55
2023-03-10T02:56:37.139Z,76.65
2023-03-10T02:59:09.845Z,76.00
2023-03-10T03:01:45.949Z,74.00
2023-03-10T03:04:18.635Z,75.44
2023-03-10T03:06:51.108Z,74.64
2023-03-10T03:09:22.980Z,75.44
2023-03-10T03:11:54.707Z,73.22
2023-03-10T03:14:26.363Z,73.76
2023-03-10T03:16:58.405Z,73.28
2023-03-10T03:19:30.705Z,73.71
2023-03-10T03:22:03.228Z,72.80
2023-03-10T03:24:35.130Z,72.93
2023-03-10T03:27:07.552Z,71.28
2023-03-10T03:29:40.077Z,71.22
2023-03-10T03:32:11.959Z,70.76
2023-03-10T03:34:43.884Z,71.00
2023-03-10T03:37:16.873Z,71.35
2023-03-10T03:39:48.839Z,70.92
2023-03-10T03:42:21.586Z,70.35
2023-03-10T03:44:58.020Z,70.74
2023-03-10T03:47:29.859Z,70.31
2023-03-10T03:50:03.360Z,69.83
2023-03-10T03:52:35.551Z,70.00
2023-03-10T03:55:10.045Z,70.71
2023-03-10T03:57:44.196Z,69.66
2023-03-10T04:00:22.731Z,69.04
2023-03-10T04:03:01.961Z,68.34
2023-03-10T04:05:35.151Z,69.52
2023-03-10T04:08:08.155Z,70.00
2023-03-10T04:10:39.814Z,70.87
2023-03-10T04:13:11.719Z,72.16
2023-03-10T04:15:43.710Z,72.85
2023-03-10T04:18:15.449Z,73.84
2023-03-10T04:20:47.651Z,72.69
2023-03-10T04:23:21.310Z,74.00
2023-03-10T04:25:53.608Z,72.20
2023-03-10T04:28:25.345Z,73.03
2023-03-10T04:30:57.140Z,71.97
2023-03-10T04:33:32.556Z,71.33
2023-03-10T04:36:04.919Z,70.62
2023-03-10T04:38:37.197Z,71.07
2023-03-10T04:41:10.279Z,71.94
2023-03-10T04:43:47.812Z,71.69
2023-03-10T04:46:21.287Z,70.87
2023-03-10T04:48:53.689Z,71.63
2023-03-10T04:51:25.386Z,70.46
2023-03-10T04:53:59.593Z,72.22
2023-03-10T04:56:34.831Z,74.42
2023-03-10T04:59:06.749Z,76.24
2023-03-10T05:01:38.626Z,76.35
2023-03-10T05:04:11.501Z,77.85
2023-03-10T05:06:43.781Z,77.86
2023-03-10T05:09:29.073Z,79.33
2023-03-10T05:12:01.244Z,80.10
2023-03-10T05:14:37.793Z,80.77
2023-03-10T05:17:11.528Z,80.56
2023-03-10T05:19:43.741Z,79.29
2023-03-10T05:22:15.671Z,77.42
2023-03-10T05:24:47.577Z,77.04
2023-03-10T05:27:21.710Z,76.97
2023-03-10T05:29:53.593Z,76.67
2023-03-10T05:32:28.917Z,76.52
2023-03-10T05:35:01.224Z,76.66
2023-03-10T05:37:36.789Z,76.93
2023-03-10T05:40:15.310Z,77.49
2023-03-10T05:42:50.053Z,77.58
2023-03-10T05:45:23.277Z,77.44
2023-03-10T05:47:55.920Z,77.41
2023-03-10T05:50:27.832Z,77.24
2023-03-10T05:53:01.364Z,76.95
2023-03-10T05:55:33.202Z,77.09
2023-03-10T05:58:05.478Z,77.42
2023-03-10T06:00:37.177Z,77.90
2023-03-10T06:03:10.171Z,78.52
2023-03-10T06:05:41.993Z,79.03
2023-03-10T06:08:13.654Z,79.04
2023-03-10T06:10:45.344Z,79.39
2023-03-10T06:13:17.879Z,79.88
2023-03-10T06:15:59.180Z,79.23
2023-03-10T06:18:32.153Z,79.13
2023-03-10T06:21:10.790Z,78.26
2023-03-10T06:23:42.607Z,77.57
2023-03-10T06:26:17.132Z,77.64
2023-03-10T06:28:48.907Z,76.48
2023-03-10T06:31:24.696Z,76.62
2023-03-10T06:33:57.195Z,76.25
2023-03-10T06:36:29.881Z,76.14
2023-03-10T06:39:01.654Z,76.07
2023-03-10T06:41:35.611Z,76.49
2023-03-10T06:44:07.423Z,75.93
2023-03-10T06:46:39.071Z,75.34
2023-03-10T06:49:10.817Z,77.37
2023-03-10T06:51:42.432Z,76.13
2023-03-10T06:54:14.100Z,69.66
2023-03-10T06:56:45.922Z,63.03
2023-03-10T06:59:17.915Z,60.12
2023-03-10T07:01:49.565Z,56.45
2023-03-10T07:04:21.221Z,51.70
2023-03-10T07:06:52.901Z,52.68
2023-03-10T07:09:24.682Z,53.44
2023-03-10T07:11:56.904Z,57.64
2023-03-10T07:14:28.836Z,58.33
2023-03-10T07:17:00.705Z,58.14
2023-03-10T07:19:32.664Z,57.19
2023-03-10T07:22:04.322Z,57.29
2023-03-10T07:24:36.492Z,58.72
2023-03-10T07:27:08.307Z,61.17
2023-03-10T07:29:40.158Z,63.82
2023-03-10T07:32:12.428Z,64.54
2023-03-10T07:34:44.161Z,65.66
2023-03-10T07:37:15.802Z,66.35
2023-03-10T07:39:47.641Z,67.34
2023-03-10T07:42:20.910Z,67.30
2023-03-10T07:44:52.751Z,67.93
2023-03-10T07:47:24.750Z,67.31
2023-03-10T07:49:56.808Z,68.19
2023-03-10T07:52:31.108Z,67.62
2023-03-10T07:55:03.372Z,68.84
2023-03-10T07:57:35.913Z,67.83
2023-03-10T08:00:09.114Z,68.93
2023-03-10T08:02:47.265Z,68.88
2023-03-10T08:05:19.275Z,69.21
2023-03-10T08:07:51.212Z,69.48
2023-03-10T08:10:23.013Z,70.25
2023-03-10T08:12:54.923Z,71.57
2023-03-10T08:15:26.967Z,73.08
2023-03-10T08:17:58.880Z,72.79
2023-03-10T08:20:31.011Z,73.30
2023-03-10T08:23:02.873Z,73.17
2023-03-10T08:25:34.681Z,72.91
2023-03-10T08:28:06.594Z,73.25
2023-03-10T08:30:52.150Z,73.07
2023-03-10T08:33:31.333Z,74.43
2023-03-10T08:36:11.123Z,76.45
2023-03-10T08:38:43.781Z,77.60
2023-03-10T08:41:21.176Z,76.49
2023-03-10T08:43:55.821Z,76.73
2023-03-10T08:46:30.347Z,75.64
2023-03-10T08:49:02.872Z,72.81
2023-03-10T08:51:34.675Z,73.68
2023-03-10T08:54:07.310Z,73.21
2023-03-10T08:56:39.405Z,73.97
2023-03-10T08:59:11.879Z,74.43
2023-03-10T09:01:44.071Z,74.92
2023-03-10T09:04:15.744Z,75.14
2023-03-10T09:06:47.692Z,74.38
2023-03-10T09:09:19.347Z,73.85
2023-03-10T09:11:51.140Z,74.82
2023-03-10T09:14:22.937Z,74.03
2023-03-10T09:16:54.665Z,72.93
2023-03-10T09:19:26.601Z,71.57
2023-03-10T09:21:58.254Z,70.35
2023-03-10T09:24:30.034Z,68.59
2023-03-10T09:27:01.671Z,68.13
2023-03-10T09:29:42.751Z,69.23
2023-03-10T09:32:15.077Z,69.25
2023-03-10T09:34:46.674Z,69.20
2023-03-10T09:37:18.337Z,68.96
2023-03-10T09:39:50.024Z,67.80
2023-03-10T09:42:37.850Z,67.74
2023-03-10T09:45:25.241Z,67.10
2023-03-10T09:48:08.967Z,66.46
2023-03-10T09:50:45.172Z,65.48
2023-03-10T09:53:43.655Z,65.20
2023-03-10T09:56:20.122Z,67.82
2023-03-10T09:59:05.250Z,67.99
2023-03-10T10:01:41.158Z,67.91
2023-03-10T10:04:21.455Z,69.68
2023-03-10T10:06:57.926Z,70.29
2023-03-10T10:09:43.454Z,71.13
2023-03-10T10:12:18.018Z,70.75
2023-03-10T10:14:59.808Z,72.08
2023-03-10T10:18:02.980Z,72.51
2023-03-10T10:20:50.921Z,73.21
2023-03-10T10:23:48.978Z,72.76
2023-03-10T10:26:24.063Z,71.98
2023-03-10T10:29:13.738Z,73.88
2023-03-10T10:32:11.564Z,74.86
2023-03-10T10:34:46.220Z,73.59
2023-03-10T10:37:37.302Z,69.89
2023-03-10T10:40:26.025Z,70.31
2023-03-10T10:42:58.275Z,69.93
2023-03-10T10:45:36.557Z,69.49
2023-03-10T10:48:37.157Z,70.20
2023-03-10T10:51:30.874Z,68.38
2023-03-10T10:54:18.814Z,68.50
2023-03-10T10:56:53.704Z,69.33
2023-03-10T10:59:35.170Z,67.75
2023-03-10T11:02:32.263Z,63.89
2023-03-10T11:05:27.100Z,65.99
2023-03-10T11:08:35.949Z,68.14
2023-03-10T11:11:37.969Z,68.45
2023-03-10T11:14:44.670Z,68.41
2023-03-10T11:17:35.570Z,68.54
2023-03-10T11:20:44.946Z,70.51
2023-03-10T11:23:34.597Z,70.29
2023-03-10T11:26:15.469Z,70.21
2023-03-10T11:29:01.783Z,68.34
2023-03-10T11:31:55.015Z,69.84
2023-03-10T11:34:32.746Z,69.92
2023-03-10T11:37:37.612Z,69.78
2023-03-10T11:40:32.027Z,69.17
2023-03-10T11:43:29.823Z,69.63
2023-03-10T11:46:17.292Z,69.63
2023-03-10T11:49:05.357Z,68.25
2023-03-10T11:51:52.336Z,68.03
2023-03-10T11:54:35.071Z,65.21
2023-03-10T11:57:19.975Z,63.55
2023-03-10T12:00:06.206Z,62.48
2023-03-10T12:03:04.220Z,62.12
2023-03-10T12:06:00.140Z,62.04
2023-03-10T12:08:36.099Z,61.15
2023-03-10T12:11:19.122Z,60.91
2023-03-10T12:13:59.868Z,61.00
2023-03-10T12:16:37.677Z,63.33
2023-03-10T12:19:12.420Z,64.67
2023-03-10T12:21:44.456Z,64.11
2023-03-10T12:24:43.845Z,64.78
2023-03-10T12:27:16.637Z,61.64
2023-03-10T12:29:48.543Z,61.42
2023-03-10T12:32:41.494Z,60.73
2023-03-10T12:35:28.586Z,61.96
2023-03-10T12:38:27.843Z,61.92
2023-03-10T12:41:01.007Z,61.97
2023-03-10T12:43:38.379Z,62.79
2023-03-10T12:46:15.705Z,63.35
2023-03-10T12:49:02.340Z,63.59
2023-03-10T12:51:42.749Z,63.80
2023-03-10T12:54:42.542Z,63.61
2023-03-10T12:57:19.801Z,63.65
2023-03-10T13:00:03.003Z,63.02
2023-03-10T13:02:58.771Z,61.75
2023-03-10T13:05:34.377Z,58.80
2023-03-10T13:08:22.592Z,58.72
2023-03-10T13:10:58.199Z,58.17
2023-03-10T13:13:37.876Z,58.67
2023-03-10T13:16:21.097Z,58.47
2023-03-10T13:18:54.522Z,59.04
2023-03-10T13:21:39.323Z,59.57
2023-03-10T13:24:33.447Z,58.70
2023-03-10T13:27:05.127Z,59.15
2023-03-10T13:29:37.067Z,59.81
2023-03-10T13:32:19.095Z,60.45
2023-03-10T13:34:51.724Z,60.66
2023-03-10T13:37:24.058Z,61.03
2023-03-10T13:40:08.116Z,60.20
2023-03-10T13:42:44.542Z,59.92
2023-03-10T13:45:25.474Z,59.17
2023-03-10T13:48:01.003Z,59.68
2023-03-10T13:50:33.178Z,59.69
2023-03-10T13:53:05.324Z,59.38
2023-03-10T13:55:41.311Z,58.81
2023-03-10T13:58:13.992Z,59.14
2023-03-10T14:00:46.277Z,59.44
2023-03-10T14:03:19.701Z,58.68
2023-03-10T14:05:51.945Z,58.57
2023-03-10T14:08:29.619Z,58.35
2023-03-10T14:11:31.271Z,58.17
2023-03-10T14:14:04.966Z,58.61
2023-03-10T14:16:57.314Z,58.41
2023-03-10T14:19:44.020Z,58.83
2023-03-10T14:22:24.097Z,58.45
2023-03-10T14:25:00.914Z,57.09
2023-03-10T14:27:40.525Z,56.40
2023-03-10T14:30:22.428Z,55.85
2023-03-10T14:32:56.435Z,56.28
2023-03-10T14:35:30.145Z,56.58
2023-03-10T14:38:02.087Z,56.08
2023-03-10T14:40:44.177Z,54.97
2023-03-10T14:43:20.571Z,56.09
2023-03-10T14:45:56.269Z,56.08
2023-03-10T14:48:33.658Z,55.46
2023-03-10T14:51:06.458Z,55.18
2023-03-10T14:53:38.749Z,54.59
2023-03-10T14:56:18.546Z,53.70
2023-03-10T14:58:53.993Z,53.41
2023-03-10T15:01:25.732Z,54.30
2023-03-10T15:03:57.669Z,54.44
2023-03-10T15:06:29.402Z,54.50
2023-03-10T15:09:01.065Z,54.92
2023-03-10T15:11:37.383Z,54.75
2023-03-10T15:14:15.212Z,54.41
2023-03-10T15:16:47.183Z,53.51
2023-03-10T15:19:25.504Z,53.05
2023-03-10T15:21:57.586Z,52.93
2023-03-10T15:24:29.320Z,53.45
2023-03-10T15:27:02.465Z,51.40
2023-03-10T15:29:34.059Z,52.08
2023-03-10T15:32:06.462Z,52.15
2023-03-10T15:34:38.161Z,51.46
2023-03-10T15:37:10.347Z,52.13
2023-03-10T15:39:41.997Z,51.68
2023-03-10T15:42:13.612Z,50.57
2023-03-10T15:44:56.999Z,50.42
2023-03-10T15:48:15.147Z,50.27
2023-03-10T15:53:51.128Z,48.70
2023-03-10T15:56:23.776Z,48.48
2023-03-10T15:58:55.587Z,49.69
2023-03-10T16:01:27.242Z,49.40
2023-03-10T16:03:59.783Z,49.50
2023-03-10T16:06:33.345Z,49.58
2023-03-10T16:09:05.946Z,49.40
2023-03-10T16:11:38.300Z,49.38
2023-03-10T16:14:09.978Z,48.48
2023-03-10T16:16:41.779Z,48.32
2023-03-10T16:19:13.596Z,48.12
2023-03-10T16:21:45.251Z,47.50
2023-03-10T16:24:17.139Z,48.55
2023-03-10T16:26:49.032Z,48.44
2023-03-10T16:29:20.763Z,48.25
2023-03-10T16:31:52.527Z,48.10
2023-03-10T16:34:24.267Z,49.11
2023-03-10T16:36:56.092Z,51.14
2023-03-10T16:39:28.395Z,51.45
2023-03-10T16:42:00.128Z,52.30
2023-03-10T16:44:31.924Z,50.50
2023-03-10T16:47:03.788Z,51.83
2023-03-10T16:49:35.425Z,50.16
2023-03-10T16:52:07.762Z,49.23
2023-03-10T16:54:39.474Z,50.43
2023-03-10T16:57:11.206Z,50.45
2023-03-10T16:59:43.316Z,50.60
2023-03-10T17:02:15.533Z,50.84
2023-03-10T17:04:47.335Z,50.90
2023-03-10T17:07:19.144Z,50.74
2023-03-10T17:09:50.927Z,51.22
2023-03-10T17:12:22.568Z,50.85
2023-03-10T17:14:55.865Z,51.30
2023-03-10T17:17:29.624Z,52.10
2023-03-10T17:20:01.565Z,52.20
2023-03-10T17:22:33.256Z,52.24
2023-03-10T17:25:05.872Z,52.87
2023-03-10T17:27:37.584Z,52.71
2023-03-10T17:30:10.183Z,52.59
2023-03-10T17:32:41.881Z,52.92
2023-03-10T17:35:13.879Z,53.59
2023-03-10T17:37:45.992Z,54.25
2023-03-10T17:40:17.970Z,54.24
2023-03-10T17:42:49.725Z,53.96
2023-03-10T17:45:21.508Z,54.18
2023-03-10T17:47:53.265Z,53.22
2023-03-10T17:50:25.073Z,53.58
2023-03-10T17:52:57.057Z,53.25
2023-03-10T17:55:28.828Z,53.50
2023-03-10T17:58:00.524Z,53.58
2023-03-10T18:00:32.278Z,53.54
2023-03-10T18:03:04.340Z,54.39
2023-03-10T18:05:41.185Z,53.26
2023-03-10T18:08:13.673Z,54.58
2023-03-10T18:10:45.328Z,55.83
2023-03-10T18:13:17.117Z,55.81
2023-03-10T18:15:52.179Z,56.80
2023-03-10T18:18:24.598Z,56.69
2023-03-10T18:20:56.678Z,56.64
2023-03-10T18:23:28.362Z,54.25
2023-03-10T18:26:00.825Z,55.74
2023-03-10T18:28:32.657Z,58.13
2023-03-10T18:31:17.239Z,58.58
2023-03-10T18:33:49.675Z,58.27
2023-03-10T18:36:23.382Z,58.37
2023-03-10T18:38:56.187Z,59.20
2023-03-10T18:41:28.710Z,60.43
2023-03-10T18:44:01.264Z,60.22
2023-03-10T18:46:33.081Z,61.36
2023-03-10T18:49:04.754Z,63.47
2023-03-10T18:51:36.481Z,64.20
2023-03-10T18:54:08.278Z,65.08
2023-03-10T18:56:39.893Z,67.26
2023-03-10T18:59:11.469Z,67.55
2023-03-10T19:01:43.203Z,66.16
2023-03-10T19:04:14.907Z,68.40
2023-03-10T19:06:46.617Z,70.52
2023-03-10T19:09:18.220Z,70.93
2023-03-10T19:11:50.054Z,70.33
2023-03-10T19:14:21.757Z,70.79
2023-03-10T19:16:53.483Z,70.53
2023-03-10T19:19:25.146Z,72.21
2023-03-10T19:21:56.710Z,72.73
2023-03-10T19:24:28.463Z,73.94
2023-03-10T19:27:00.199Z,74.64
2023-03-10T19:29:32.226Z,74.47
2023-03-10T19:32:03.890Z,74.92
2023-03-10T19:34:35.700Z,75.53
2023-03-10T19:37:07.424Z,76.15
2023-03-10T19:39:39.155Z,77.52
2023-03-10T19:42:11.140Z,78.24
2023-03-10T19:44:42.895Z,78.37
2023-03-10T19:47:14.571Z,78.90
2023-03-10T19:49:46.279Z,78.10
2023-03-10T19:52:17.975Z,79.86
2023-03-10T19:54:50.855Z,79.68
2023-03-10T19:57:23.507Z,79.75
2023-03-10T19:59:56.167Z,79.28
2023-03-10T20:02:29.590Z,78.25
2023-03-10T20:05:06.571Z,78.02
2023-03-10T20:07:39.414Z,78.53
2023-03-10T20:10:17.204Z,78.47
2023-03-10T20:12:49.389Z,78.74
2023-03-10T20:15:22.746Z,78.67
2023-03-10T20:17:54.971Z,78.92
2023-03-10T20:20:27.535Z,79.16
2023-03-10T20:22:59.897Z,79.08
2023-03-10T20:25:32.018Z,78.44
2023-03-10T20:28:05.031Z,79.16
2023-03-10T20:30:37.161Z,79.09
2023-03-10T20:33:10.138Z,78.73
2023-03-10T20:35:42.157Z,78.32
2023-03-10T20:38:14.287Z,79.30
2023-03-10T20:40:47.056Z,78.66
2023-03-10T20:43:19.004Z,78.76
2023-03-10T20:45:53.753Z,79.77
2023-03-10T20:48:25.839Z,79.75
2023-03-10T20:50:58.103Z,79.55
2023-03-10T20:53:32.283Z,78.62
2023-03-10T20:56:08.907Z,79.02
2023-03-10T20:58:41.039Z,79.27
2023-03-10T21:01:18.775Z,79.77
2023-03-10T21:03:51.394Z,79.30
2023-03-10T21:06:25.339Z,78.52
2023-03-10T21:08:59.539Z,78.87
2023-03-10T21:11:33.948Z,79.53
2023-03-10T21:14:06.717Z,79.72
2023-03-10T21:16:40.160Z,80.12
2023-03-10T21:19:13.540Z,80.79
2023-03-10T21:21:46.250Z,81.81
2023-03-10T21:24:18.472Z,81.39
2023-03-10T21:26:51.492Z,82.09
2023-03-10T21:29:23.931Z,81.45
2023-03-10T21:31:56.230Z,81.98
2023-03-10T21:34:28.398Z,81.61
2023-03-10T21:37:01.142Z,82.50
2023-03-10T21:39:36.137Z,81.49
2023-03-10T21:42:10.167Z,80.36
2023-03-10T21:44:43.866Z,81.48
2023-03-10T21:47:15.833Z,80.41
2023-03-10T21:49:47.858Z,81.10
2023-03-10T21:52:22.557Z,81.01
2023-03-10T21:54:54.757Z,80.84
2023-03-10T21:57:49.089Z,80.17
2023-03-10T22:00:29.909Z,81.36
2023-03-10T22:03:05.226Z,81.06
2023-03-10T22:05:37.348Z,81.34
2023-03-10T22:08:09.035Z,81.83
2023-03-10T22:10:40.644Z,81.49
2023-03-10T22:13:12.370Z,81.49
2023-03-10T22:15:44.020Z,81.72
2023-03-10T22:18:15.746Z,81.43
2023-03-10T22:20:47.350Z,81.15
2023-03-10T22:23:19.144Z,80.86
2023-03-10T22:25:50.849Z,81.14
2023-03-10T22:28:22.769Z,81.24
2023-03-10T22:30:54.434Z,80.13
2023-03-10T22:33:25.999Z,80.87
2023-03-10T22:36:03.187Z,80.89
2023-03-10T22:38:35.097Z,80.84
2023-03-10T22:41:11.788Z,80.75
2023-03-10T22:43:43.557Z,80.89
2023-03-10T22:46:17.064Z,81.19
2023-03-10T22:48:48.845Z,81.07
2023-03-10T22:51:20.466Z,80.95
2023-03-10T22:53:52.261Z,81.18
2023-03-10T22:56:23.804Z,80.84
2023-03-10T22:58:55.813Z,80.35
2023-03-10T23:01:27.390Z,79.85
2023-03-10T23:03:59.035Z,78.88
2023-03-10T23:06:30.657Z,79.02
2023-03-10T23:09:04.091Z,78.83
2023-03-10T23:11:35.733Z,78.99
2023-03-10T23:14:07.271Z,78.54
2023-03-10T23:16:38.908Z,77.54
2023-03-10T23:19:10.536Z,78.22
2023-03-10T23:21:42.080Z,78.23
2023-03-10T23:24:13.651Z,77.30
2023-03-10T23:26:45.237Z,78.92
2023-03-10T23:29:16.876Z,79.55
2023-03-10T23:31:48.470Z,79.01
2023-03-10T23:34:20.077Z,78.44
2023-03-10T23:36:51.717Z,78.57
2023-03-10T23:39:23.394Z,78.02
2023-03-10T23:41:55.053Z,78.74
2023-03-10T23:44:26.683Z,79.30
2023-03-10T23:46:58.507Z,77.97
2023-03-10T23:49:30.128Z,79.19
2023-03-10T23:52:01.783Z,77.86
2023-03-10T23:54:33.968Z,77.79
2023-03-10T23:57:05.579Z,77.06
2023-03-10T23:59:37.226Z,77.47
